createdAt,value
2019-03-03T00:02:14.756Z,6.30
2019-03-03T00:04:42.486Z,6.62
2019-03-03T00:07:10.134Z,6.64
2019-03-03T00:09:37.789Z,6.72
2019-03-03T00:12:05.439Z,6.58
2019-03-03T00:14:33.091Z,6.52
2019-03-03T00:17:00.750Z,6.49
2019-03-03T00:19:28.395Z,6.60
2019-03-03T00:21:56.039Z,6.53
2019-03-03T00:24:23.686Z,6.47
2019-03-03T00:26:51.339Z,6.42
2019-03-03T00:29:18.989Z,6.55
2019-03-03T00:31:46.647Z,6.52
2019-03-03T00:34:14.302Z,6.40
2019-03-03T00:36:47.289Z,6.34
2019-03-03T00:39:24.514Z,6.57
2019-03-03T00:42:05.927Z,6.58
2019-03-03T00:44:45.985Z,7.01
2019-03-03T00:47:20.054Z,7.01
2019-03-03T00:49:56.947Z,6.85
2019-03-03T00:52:32.384Z,6.67
2019-03-03T00:55:10.695Z,6.60
2019-03-03T00:57:45.931Z,6.73
2019-03-03T01:00:18.831Z,6.66
2019-03-03T01:02:55.868Z,6.64
2019-03-03T01:05:32.162Z,6.59
2019-03-03T01:08:05.124Z,6.61
2019-03-03T01:10:46.757Z,6.65
2019-03-03T01:13:25.557Z,6.67
2019-03-03T01:15:58.480Z,6.60
2019-03-03T01:18:35.228Z,6.73
2019-03-03T01:21:09.347Z,6.74
2019-03-03T01:23:46.523Z,6.83
2019-03-03T01:26:14.168Z,6.84
2019-03-03T01:28:41.840Z,6.88
2019-03-03T01:31:09.487Z,6.89
2019-03-03T01:33:37.240Z,6.90
2019-03-03T01:36:04.894Z,6.98
2019-03-03T01:38:32.538Z,7.01
2019-03-03T01:41:00.191Z,7.00
2019-03-03T01:43:27.854Z,7.09
2019-03-03T01:45:55.518Z,7.17
2019-03-03T01:48:23.163Z,7.20
2019-03-03T01:50:50.888Z,7.69
2019-03-03T01:53:18.526Z,7.77
2019-03-03T01:55:46.188Z,7.83
2019-03-03T01:58:13.840Z,8.10
2019-03-03T02:00:41.486Z,8.22
2019-03-03T02:03:09.311Z,8.63
2019-03-03T02:08:03.576Z,8.56
2019-03-03T02:10:31.303Z,8.61
2019-03-03T02:12:58.943Z,8.57
2019-03-03T02:15:26.609Z,8.73
2019-03-03T02:17:54.319Z,8.57
2019-03-03T02:20:21.978Z,8.50
2019-03-03T02:22:49.648Z,8.74
2019-03-03T02:25:17.333Z,8.65
2019-03-03T02:27:44.970Z,8.78
2019-03-03T02:30:12.619Z,8.88
2019-03-03T02:32:40.275Z,8.88
2019-03-03T02:35:07.946Z,8.71
2019-03-03T02:37:35.591Z,8.71
2019-03-03T02:40:03.252Z,8.74
2019-03-03T02:42:30.894Z,8.72
2019-03-03T02:44:58.546Z,8.56
2019-03-03T02:47:26.181Z,8.63
2019-03-03T02:49:53.828Z,8.67
2019-03-03T02:52:21.464Z,8.64
2019-03-03T02:54:49.129Z,8.73
2019-03-03T02:57:16.786Z,8.77
2019-03-03T02:59:44.423Z,8.70
2019-03-03T03:02:26.867Z,8.71
2019-03-03T03:04:54.509Z,8.65
2019-03-03T03:07:28.924Z,8.92
2019-03-03T03:10:16.533Z,8.79
2019-03-03T03:12:52.526Z,8.82
2019-03-03T03:15:25.340Z,8.94
2019-03-03T03:17:58.256Z,8.69
2019-03-03T03:20:49.986Z,8.78
2019-03-03T03:23:24.121Z,8.86
2019-03-03T03:26:11.775Z,8.76
2019-03-03T03:28:52.421Z,8.67
2019-03-03T03:31:26.335Z,8.82
2019-03-03T03:34:00.358Z,9.02
2019-03-03T03:36:42.089Z,8.99
2019-03-03T03:39:18.702Z,9.00
2019-03-03T03:41:55.182Z,8.97
2019-03-03T03:44:41.861Z,9.14
2019-03-03T03:47:19.394Z,9.01
2019-03-03T03:49:53.215Z,8.90
2019-03-03T03:52:29.459Z,9.08
2019-03-03T03:55:12.754Z,9.12
2019-03-03T03:57:48.636Z,9.11
2019-03-03T04:00:36.261Z,9.11
2019-03-03T04:03:24.916Z,9.21
2019-03-03T04:06:02.315Z,9.08
2019-03-03T04:08:34.880Z,9.17
2019-03-03T04:11:07.641Z,9.14
2019-03-03T04:13:44.769Z,9.03
2019-03-03T04:16:18.673Z,9.05
2019-03-03T04:18:54.411Z,8.94
2019-03-03T04:21:33.755Z,9.02
2019-03-03T04:24:06.663Z,9.01
2019-03-03T04:26:44.754Z,8.99
2019-03-03T04:29:19.162Z,9.27
2019-03-03T04:31:52.098Z,9.04
2019-03-03T04:34:26.364Z,9.11
2019-03-03T04:37:01.424Z,9.16
2019-03-03T04:39:35.816Z,9.16
2019-03-03T04:42:14.549Z,9.26
2019-03-03T04:44:54.286Z,9.07
2019-03-03T04:47:27.596Z,9.40
2019-03-03T04:50:04.365Z,9.23
2019-03-03T04:52:44.632Z,9.35
2019-03-03T04:55:17.612Z,9.44
2019-03-03T04:57:56.340Z,9.41
2019-03-03T05:00:34.342Z,9.35
2019-03-03T05:03:10.807Z,9.59
2019-03-03T05:05:46.351Z,9.69
2019-03-03T05:08:25.479Z,9.57
2019-03-03T05:11:10.656Z,9.53
2019-03-03T05:13:44.150Z,9.37
2019-03-03T05:16:17.015Z,9.31
2019-03-03T05:18:56.061Z,9.42
2019-03-03T05:21:23.707Z,9.44
2019-03-03T05:23:51.360Z,9.56
2019-03-03T05:26:18.991Z,9.56
2019-03-03T05:28:46.632Z,9.78
2019-03-03T05:31:14.266Z,9.67
2019-03-03T05:33:41.914Z,9.51
2019-03-03T05:36:09.549Z,9.65
2019-03-03T05:38:37.187Z,9.66
2019-03-03T05:41:04.835Z,9.54
2019-03-03T05:43:32.470Z,9.54
2019-03-03T05:46:00.109Z,9.68
2019-03-03T05:48:27.747Z,9.72
2019-03-03T05:50:55.392Z,9.76
2019-03-03T05:53:23.031Z,9.83
2019-03-03T05:55:50.669Z,9.62
2019-03-03T05:58:18.304Z,9.71
2019-03-03T06:00:45.931Z,9.84
2019-03-03T06:03:13.657Z,9.74
2019-03-03T06:05:41.323Z,9.57
2019-03-03T06:08:08.954Z,9.73
2019-03-03T06:10:36.586Z,9.76
2019-03-03T06:13:04.229Z,9.73
2019-03-03T06:15:31.856Z,9.84
2019-03-03T06:17:59.492Z,9.69
2019-03-03T06:20:27.877Z,9.73
2019-03-03T06:22:55.672Z,9.71
2019-03-03T06:25:23.310Z,9.77
2019-03-03T06:27:50.948Z,9.78
2019-03-03T06:30:18.589Z,9.77
2019-03-03T06:32:46.242Z,9.65
2019-03-03T06:35:13.863Z,9.73
2019-03-03T06:37:41.507Z,9.91
2019-03-03T06:40:09.146Z,9.79
2019-03-03T06:42:36.798Z,9.78
2019-03-03T06:45:04.426Z,9.96
2019-03-03T06:47:32.068Z,10.01
2019-03-03T06:49:59.711Z,10.03
2019-03-03T06:52:27.354Z,9.90
2019-03-03T06:54:55.083Z,9.89
2019-03-03T06:57:22.718Z,9.90
2019-03-03T06:59:50.349Z,9.88
2019-03-03T07:02:17.983Z,9.89
2019-03-03T07:04:45.633Z,9.84
2019-03-03T07:07:13.279Z,9.91
2019-03-03T07:09:40.932Z,9.91
2019-03-03T07:12:08.584Z,9.89
2019-03-03T07:14:36.229Z,9.92
2019-03-03T07:17:03.869Z,9.96
2019-03-03T07:19:31.503Z,10.11
2019-03-03T07:21:59.162Z,10.25
2019-03-03T07:24:26.822Z,10.30
2019-03-03T07:26:54.488Z,10.46
2019-03-03T07:29:22.135Z,10.52
2019-03-03T07:31:49.762Z,10.53
2019-03-03T07:34:17.407Z,10.50
2019-03-03T07:36:45.065Z,10.47
2019-03-03T07:39:12.780Z,10.46
2019-03-03T07:41:40.499Z,10.48
2019-03-03T07:44:08.139Z,10.51
2019-03-03T07:46:35.807Z,10.47
2019-03-03T07:49:03.447Z,10.54
2019-03-03T07:51:31.087Z,10.48
2019-03-03T07:53:58.745Z,10.61
2019-03-03T07:56:26.392Z,10.64
2019-03-03T07:58:54.036Z,10.82
2019-03-03T08:01:21.761Z,10.71
2019-03-03T08:03:49.466Z,10.88
2019-03-03T08:06:17.113Z,10.81
2019-03-03T08:08:44.747Z,10.87
2019-03-03T08:11:12.422Z,10.84
2019-03-03T08:13:40.086Z,10.84
2019-03-03T08:16:07.738Z,10.95
2019-03-03T08:18:35.436Z,10.97
2019-03-03T08:21:03.083Z,11.00
2019-03-03T08:23:30.726Z,11.10
2019-03-03T08:25:58.379Z,11.11
2019-03-03T08:28:26.023Z,11.15
2019-03-03T08:30:53.685Z,11.16
2019-03-03T08:33:21.358Z,11.14
2019-03-03T08:35:49.011Z,11.19
2019-03-03T08:38:16.656Z,11.15
2019-03-03T08:40:44.296Z,11.21
2019-03-03T08:43:17.265Z,11.31
2019-03-03T08:45:53.096Z,11.33
2019-03-03T08:48:40.913Z,11.45
2019-03-03T08:51:18.869Z,11.60
2019-03-03T08:53:56.058Z,11.70
2019-03-03T08:56:43.555Z,11.73
2019-03-03T08:59:21.401Z,11.83
2019-03-03T09:01:56.727Z,11.86
2019-03-03T09:04:29.668Z,11.99
2019-03-03T09:07:04.015Z,11.86
2019-03-03T09:09:38.250Z,11.80
2019-03-03T09:12:11.164Z,12.04
2019-03-03T09:14:51.487Z,12.10
2019-03-03T09:17:27.904Z,12.45
2019-03-03T09:20:06.058Z,12.25
2019-03-03T09:22:45.407Z,12.49
2019-03-03T09:25:28.019Z,12.77
2019-03-03T09:28:04.591Z,12.28
2019-03-03T09:30:56.345Z,12.29
2019-03-03T09:33:39.440Z,12.62
2019-03-03T09:36:32.084Z,12.42
2019-03-03T09:39:09.683Z,12.35
2019-03-03T09:41:47.170Z,12.11
2019-03-03T09:44:23.239Z,12.04
2019-03-03T09:47:00.111Z,11.85
2019-03-03T09:49:33.080Z,11.88
2019-03-03T09:52:09.970Z,11.89
2019-03-03T09:54:54.023Z,11.86
2019-03-03T09:57:33.462Z,11.87
2019-03-03T10:00:09.114Z,11.79
2019-03-03T10:02:42.384Z,11.76
2019-03-03T10:05:15.338Z,11.84
2019-03-03T10:07:51.252Z,11.85
2019-03-03T10:10:24.863Z,11.92
2019-03-03T10:13:02.653Z,11.90
2019-03-03T10:15:36.051Z,12.02
2019-03-03T10:18:13.238Z,12.25
2019-03-03T10:20:59.926Z,12.28
2019-03-03T10:23:39.284Z,12.38
2019-03-03T10:26:19.553Z,12.41
2019-03-03T10:28:52.410Z,12.45
2019-03-03T10:31:41.102Z,12.40
2019-03-03T10:34:20.135Z,12.59
2019-03-03T10:36:54.928Z,12.69
2019-03-03T10:39:27.007Z,12.83
2019-03-03T10:42:07.888Z,13.08
2019-03-03T10:44:43.934Z,13.17
2019-03-03T10:47:18.062Z,12.95
2019-03-03T10:49:53.410Z,12.93
2019-03-03T10:52:30.091Z,12.81
2019-03-03T10:55:07.060Z,12.79
2019-03-03T10:57:45.570Z,12.93
2019-03-03T11:00:25.905Z,13.08
2019-03-03T11:03:14.390Z,13.29
2019-03-03T11:05:47.281Z,13.14
2019-03-03T11:08:33.071Z,13.26
2019-03-03T11:11:11.556Z,13.12
2019-03-03T11:13:47.759Z,13.11
2019-03-03T11:16:26.131Z,13.19
2019-03-03T11:19:02.002Z,13.07
2019-03-03T11:21:35.042Z,13.29
2019-03-03T11:24:17.876Z,13.21
2019-03-03T11:27:06.553Z,13.23
2019-03-03T11:29:40.361Z,13.04
2019-03-03T11:32:15.188Z,13.01
2019-03-03T11:34:56.779Z,12.80
2019-03-03T11:37:29.731Z,12.84
2019-03-03T11:40:08.229Z,12.64
2019-03-03T11:42:40.456Z,12.72
2019-03-03T11:45:15.077Z,12.91
2019-03-03T11:47:50.654Z,12.88
2019-03-03T11:50:26.282Z,12.95
2019-03-03T11:53:01.026Z,12.99
2019-03-03T11:55:37.371Z,12.86
2019-03-03T11:58:12.235Z,12.96
2019-03-03T12:01:01.830Z,12.75
2019-03-03T12:03:37.334Z,12.73
2019-03-03T12:06:14.159Z,12.75
2019-03-03T12:08:50.377Z,12.69
2019-03-03T12:11:23.210Z,12.61
2019-03-03T12:13:57.056Z,12.64
2019-03-03T12:16:30.755Z,12.79
2019-03-03T12:19:07.037Z,12.86
2019-03-03T12:21:42.978Z,12.98
2019-03-03T12:24:17.001Z,13.13
2019-03-03T12:26:59.903Z,13.35
2019-03-03T12:29:34.229Z,13.48
2019-03-03T12:32:10.530Z,13.46
2019-03-03T12:34:45.041Z,13.56
2019-03-03T12:39:46.250Z,13.52
2019-03-03T12:42:23.195Z,13.78
2019-03-03T12:44:56.052Z,13.69
2019-03-03T12:49:59.079Z,13.68
2019-03-03T12:52:35.010Z,13.87
2019-03-03T12:55:07.991Z,13.77
2019-03-03T13:02:43.293Z,13.56
2019-03-03T13:07:43.213Z,13.42
2019-03-03T13:10:23.980Z,13.29
2019-03-03T13:12:59.521Z,13.30
2019-03-03T13:15:38.262Z,13.28
2019-03-03T13:18:16.251Z,13.30
2019-03-03T13:20:53.340Z,13.32
2019-03-03T13:23:26.633Z,13.19
2019-03-03T13:25:59.604Z,13.21
2019-03-03T13:28:34.143Z,13.25
2019-03-03T13:31:08.979Z,13.14
2019-03-03T13:34:00.652Z,13.15
2019-03-03T13:36:37.269Z,13.16
2019-03-03T13:39:18.921Z,13.23
2019-03-03T13:41:57.796Z,13.12
2019-03-03T13:44:25.449Z,13.06
2019-03-03T13:46:53.081Z,13.13
2019-03-03T13:49:20.745Z,13.11
2019-03-03T13:51:48.386Z,13.10
2019-03-03T13:54:16.026Z,13.10
2019-03-03T13:56:43.666Z,13.06
2019-03-03T13:59:11.308Z,13.01
2019-03-03T14:01:38.965Z,12.95
2019-03-03T14:04:06.617Z,12.89
2019-03-03T14:06:34.267Z,12.84
2019-03-03T14:09:01.918Z,12.75
2019-03-03T14:11:29.567Z,12.69
2019-03-03T14:13:57.204Z,12.65
2019-03-03T14:16:24.846Z,12.68
2019-03-03T14:18:52.496Z,12.58
2019-03-03T14:21:20.142Z,12.48
2019-03-03T14:23:49.443Z,12.48
2019-03-03T14:26:17.331Z,12.46
2019-03-03T14:28:45.000Z,12.42
2019-03-03T14:31:12.652Z,12.36
2019-03-03T14:33:40.295Z,12.37
2019-03-03T14:36:07.983Z,12.30
2019-03-03T14:38:35.622Z,12.33
2019-03-03T14:41:03.269Z,12.33
2019-03-03T14:43:30.921Z,12.28
2019-03-03T14:45:58.580Z,12.40
2019-03-03T14:50:52.143Z,12.46
2019-03-03T14:53:19.807Z,12.38
2019-03-03T14:55:47.457Z,12.40
2019-03-03T14:58:15.102Z,12.41
2019-03-03T15:00:42.761Z,12.41
2019-03-03T15:03:10.394Z,12.41
2019-03-03T15:08:03.958Z,12.45
2019-03-03T15:10:31.602Z,12.34
2019-03-03T15:12:59.252Z,12.47
2019-03-03T15:15:26.895Z,12.46
2019-03-03T15:20:20.520Z,12.45
2019-03-03T15:22:48.164Z,12.54
2019-03-03T15:25:15.802Z,12.40
2019-03-03T15:27:43.453Z,12.46
2019-03-03T15:30:11.079Z,12.40
2019-03-03T15:32:38.723Z,12.38
2019-03-03T15:35:06.384Z,12.39
2019-03-03T15:37:34.037Z,12.30
2019-03-03T15:40:01.674Z,12.32
2019-03-03T15:42:29.314Z,12.26
2019-03-03T15:44:56.961Z,12.32
2019-03-03T15:49:50.527Z,12.30
2019-03-03T15:52:18.192Z,12.21
2019-03-03T15:54:45.820Z,12.14
2019-03-03T15:57:13.795Z,12.07
2019-03-03T15:59:41.478Z,12.19
2019-03-03T16:02:09.143Z,12.18
2019-03-03T16:04:36.790Z,12.13
2019-03-03T16:07:04.516Z,12.15
2019-03-03T16:09:32.163Z,12.07
2019-03-03T16:11:59.809Z,12.04
2019-03-03T16:14:27.455Z,12.04
2019-03-03T16:16:55.103Z,12.03
2019-03-03T16:19:22.747Z,12.01
2019-03-03T16:21:50.393Z,12.01
2019-03-03T16:24:18.044Z,11.94
2019-03-03T16:26:45.781Z,11.86
2019-03-03T16:29:13.402Z,11.88
2019-03-03T16:31:41.056Z,11.88
2019-03-03T16:34:08.695Z,11.83
2019-03-03T16:36:36.332Z,11.84
2019-03-03T16:39:04.454Z,11.71
2019-03-03T16:41:32.107Z,11.66
2019-03-03T16:43:59.764Z,11.75
2019-03-03T16:46:27.415Z,11.68
2019-03-03T16:48:55.076Z,11.75
2019-03-03T16:51:22.737Z,11.66
2019-03-03T16:53:50.369Z,11.72
2019-03-03T16:56:18.055Z,11.68
2019-03-03T16:58:45.694Z,11.69
2019-03-03T17:01:13.340Z,11.65
2019-03-03T17:03:40.987Z,11.57
2019-03-03T17:06:08.641Z,11.57
2019-03-03T17:08:36.277Z,11.61
2019-03-03T17:11:03.971Z,11.54
2019-03-03T17:13:31.601Z,11.62
2019-03-03T17:15:59.293Z,11.57
2019-03-03T17:18:26.934Z,11.49
2019-03-03T17:20:54.573Z,11.54
2019-03-03T17:23:22.228Z,11.58
2019-03-03T17:25:49.869Z,11.57
2019-03-03T17:28:17.509Z,11.49
2019-03-03T17:30:45.147Z,11.56
2019-03-03T17:33:12.808Z,11.55
2019-03-03T17:35:40.452Z,11.41
2019-03-03T17:38:08.103Z,11.47
2019-03-03T17:40:35.755Z,11.42
2019-03-03T17:43:03.406Z,11.51
2019-03-03T17:45:31.051Z,11.47
2019-03-03T17:47:58.715Z,11.42
2019-03-03T17:50:26.346Z,11.32
2019-03-03T17:52:54.000Z,11.34
2019-03-03T17:55:21.661Z,11.31
2019-03-03T17:57:49.313Z,11.33
2019-03-03T18:00:17.141Z,11.27
2019-03-03T18:02:44.783Z,11.31
2019-03-03T18:05:12.433Z,11.26
2019-03-03T18:07:40.118Z,11.20
2019-03-03T18:10:07.913Z,11.16
2019-03-03T18:12:35.543Z,11.26
2019-03-03T18:15:03.254Z,11.17
2019-03-03T18:17:30.899Z,11.15
2019-03-03T18:19:58.538Z,11.12
2019-03-03T18:22:26.182Z,11.14
2019-03-03T18:24:53.847Z,11.20
2019-03-03T18:27:21.512Z,11.15
2019-03-03T18:29:49.156Z,11.08
2019-03-03T18:32:16.806Z,11.04
2019-03-03T18:34:44.438Z,11.00
2019-03-03T18:37:13.226Z,11.03
2019-03-03T18:39:41.038Z,10.93
2019-03-03T18:42:08.676Z,10.90
2019-03-03T18:44:36.305Z,11.01
2019-03-03T18:47:03.947Z,10.99
2019-03-03T18:49:31.594Z,10.96
2019-03-03T18:51:59.246Z,11.01
2019-03-03T18:54:26.898Z,11.05
2019-03-03T18:56:54.538Z,11.00
2019-03-03T18:59:22.174Z,11.04
2019-03-03T19:01:49.821Z,10.97
2019-03-03T19:04:17.463Z,10.98
2019-03-03T19:06:45.110Z,10.93
2019-03-03T19:09:17.628Z,10.89
2019-03-03T19:11:45.312Z,10.82
2019-03-03T19:14:12.943Z,10.94
2019-03-03T19:16:40.611Z,10.91
2019-03-03T19:19:08.251Z,10.93
2019-03-03T19:21:35.899Z,11.00
2019-03-03T19:24:03.575Z,11.04
2019-03-03T19:26:31.215Z,11.08
2019-03-03T19:28:58.860Z,11.03
2019-03-03T19:31:26.494Z,10.91
2019-03-03T19:33:54.139Z,10.90
2019-03-03T19:36:21.780Z,10.96
2019-03-03T19:38:49.428Z,10.92
2019-03-03T19:41:17.073Z,10.88
2019-03-03T19:43:44.718Z,10.97
2019-03-03T19:46:12.350Z,10.88
2019-03-03T19:48:40.013Z,10.98
2019-03-03T19:51:07.743Z,10.96
2019-03-03T19:53:35.479Z,11.02
2019-03-03T19:56:03.119Z,11.04
2019-03-03T19:58:30.777Z,10.98
2019-03-03T20:00:58.502Z,10.88
2019-03-03T20:03:26.144Z,10.82
2019-03-03T20:05:53.784Z,10.84
2019-03-03T20:08:21.428Z,10.96
2019-03-03T20:10:49.088Z,10.77
2019-03-03T20:13:16.727Z,10.76
2019-03-03T20:15:44.379Z,10.75
2019-03-03T20:18:12.040Z,10.76
2019-03-03T20:20:39.674Z,10.74
2019-03-03T20:23:07.323Z,10.96
2019-03-03T20:25:34.968Z,11.02
2019-03-03T20:28:02.619Z,10.97
2019-03-03T20:30:30.255Z,10.87
2019-03-03T20:32:57.907Z,10.84
2019-03-03T20:35:25.539Z,10.84
2019-03-03T20:37:53.193Z,10.99
2019-03-03T20:40:20.882Z,10.93
2019-03-03T20:42:48.539Z,10.84
2019-03-03T20:45:16.174Z,10.83
2019-03-03T20:47:43.822Z,10.71
2019-03-03T20:50:11.462Z,10.67
2019-03-03T20:52:39.110Z,10.57
2019-03-03T20:55:06.754Z,10.55
2019-03-03T20:57:36.390Z,10.67
2019-03-03T21:00:03.751Z,10.70
2019-03-03T21:02:31.408Z,10.56
2019-03-03T21:04:59.210Z,10.73
2019-03-03T21:07:27.018Z,10.49
2019-03-03T21:09:54.749Z,10.48
2019-03-03T21:12:22.398Z,10.58
2019-03-03T21:14:50.054Z,10.63
2019-03-03T21:17:17.695Z,10.47
2019-03-03T21:19:45.429Z,10.43
2019-03-03T21:22:13.084Z,10.37
2019-03-03T21:24:40.875Z,10.44
2019-03-03T21:27:08.520Z,10.89
2019-03-03T21:29:36.154Z,10.91
2019-03-03T21:32:03.804Z,10.76
2019-03-03T21:34:31.453Z,10.65
2019-03-03T21:36:59.187Z,10.68
2019-03-03T21:39:26.843Z,11.00
2019-03-03T21:41:54.490Z,10.85
2019-03-03T21:44:22.156Z,10.95
2019-03-03T22:01:26.034Z,10.83
2019-03-03T22:03:53.672Z,10.85
2019-03-03T22:06:21.315Z,10.67
2019-03-03T22:08:48.951Z,10.70
2019-03-03T22:11:16.630Z,10.62
2019-03-03T22:13:44.318Z,10.60
2019-03-03T22:16:12.053Z,10.58
2019-03-03T22:18:39.690Z,10.68
2019-03-03T22:21:07.322Z,10.66
2019-03-03T22:23:34.968Z,10.53
2019-03-03T22:26:02.611Z,10.62
2019-03-03T22:28:30.265Z,10.78
2019-03-03T22:30:57.922Z,10.77
2019-03-03T22:33:25.571Z,10.69
2019-03-03T22:35:53.215Z,10.65
2019-03-03T22:38:21.304Z,10.57
2019-03-03T22:40:49.094Z,10.70
2019-03-03T22:43:16.810Z,10.59
2019-03-03T22:45:44.517Z,10.67
2019-03-03T22:48:12.177Z,10.89
2019-03-03T22:50:39.849Z,10.82
2019-03-03T22:53:07.492Z,10.73
2019-03-03T22:55:35.143Z,11.23
2019-03-03T22:58:02.776Z,11.03
2019-03-03T23:00:43.175Z,10.83
2019-03-03T23:03:10.814Z,10.72
2019-03-03T23:05:38.459Z,10.74
2019-03-03T23:08:06.102Z,10.83
2019-03-03T23:10:34.869Z,10.66
2019-03-03T23:13:02.652Z,10.59
2019-03-03T23:15:30.304Z,10.51
2019-03-03T23:17:57.963Z,10.50
2019-03-03T23:20:25.605Z,10.64
2019-03-03T23:22:53.239Z,10.67
2019-03-03T23:25:20.891Z,10.75
2019-03-03T23:27:48.534Z,10.81
2019-03-03T23:30:16.183Z,10.97
2019-03-03T23:32:43.822Z,10.70
2019-03-03T23:35:11.481Z,10.62
2019-03-03T23:37:39.133Z,10.64
2019-03-03T23:40:06.781Z,10.77
2019-03-03T23:42:34.428Z,10.86
2019-03-03T23:45:02.075Z,10.80
2019-03-03T23:47:29.711Z,10.89
2019-03-03T23:49:57.367Z,10.80
2019-03-03T23:54:51.612Z,10.67
2019-03-03T23:57:19.260Z,10.67
